sensor_id;sensor_type;location;lat;lon;timestamp;pressure;altitude;pressure_sealevel;temperature;humidity
50103;BME280;35993;52.604;10.078;2024-03-06T00:02:24;101511.41;;;5.27;78.98
50103;BME280;35993;52.604;10.078;2024-03-06T00:04:51;101513.94;;;5.29;78.64
50103;BME280;35993;52.604;10.078;2024-03-06T00:07:17;101507.84;;;5.18;78.45
50103;BME280;35993;52.604;10.078;2024-03-06T00:09:42;101508.88;;;5.25;78.96
50103;BME280;35993;52.604;10.078;2024-03-06T00:12:08;101514.59;;;5.22;79.10
50103;BME280;35993;52.604;10.078;2024-03-06T00:14:35;101512.19;;;5.11;78.71
50103;BME280;35993;52.604;10.078;2024-03-06T00:17:02;101517.09;;;5.16;78.47
50103;BME280;35993;52.604;10.078;2024-03-06T00:19:30;101519.44;;;5.19;78.36
50103;BME280;35993;52.604;10.078;2024-03-06T00:21:55;101522.50;;;5.24;78.46
50103;BME280;35993;52.604;10.078;2024-03-06T00:24:21;101527.06;;;5.23;79.03
50103;BME280;35993;52.604;10.078;2024-03-06T00:26:48;101526.53;;;5.20;78.78
50103;BME280;35993;52.604;10.078;2024-03-06T00:29:14;101526.69;;;5.18;78.85
50103;BME280;35993;52.604;10.078;2024-03-06T00:31:46;101530.03;;;5.20;78.94
50103;BME280;35993;52.604;10.078;2024-03-06T00:34:12;101515.41;;;5.15;78.79
50103;BME280;35993;52.604;10.078;2024-03-06T00:36:41;101520.94;;;5.13;78.55
50103;BME280;35993;52.604;10.078;2024-03-06T00:39:07;101526.16;;;5.15;78.52
50103;BME280;35993;52.604;10.078;2024-03-06T00:41:34;101523.66;;;5.13;78.66
50103;BME280;35993;52.604;10.078;2024-03-06T00:43:59;101522.59;;;5.06;78.84
50103;BME280;35993;52.604;10.078;2024-03-06T00:46:25;101523.09;;;5.01;78.97
50103;BME280;35993;52.604;10.078;2024-03-06T00:48:51;101538.94;;;5.13;79.15
50103;BME280;35993;52.604;10.078;2024-03-06T00:51:16;101531.19;;;5.09;78.68
50103;BME280;35993;52.604;10.078;2024-03-06T00:53:42;101544.13;;;5.06;78.62
50103;BME280;35993;52.604;10.078;2024-03-06T00:56:07;101540.09;;;5.10;78.60
50103;BME280;35993;52.604;10.078;2024-03-06T00:58:34;101545.81;;;5.07;78.38
50103;BME280;35993;52.604;10.078;2024-03-06T01:00:59;101539.91;;;5.03;78.52
50103;BME280;35993;52.604;10.078;2024-03-06T01:03:25;101549.03;;;5.11;78.57
50103;BME280;35993;52.604;10.078;2024-03-06T01:05:50;101553.56;;;5.10;78.40
50103;BME280;35993;52.604;10.078;2024-03-06T01:08:19;101556.56;;;5.07;78.60
50103;BME280;35993;52.604;10.078;2024-03-06T01:10:44;101555.84;;;4.97;78.83
50103;BME280;35993;52.604;10.078;2024-03-06T01:13:10;101567.34;;;5.07;78.47
50103;BME280;35993;52.604;10.078;2024-03-06T01:15:39;101569.88;;;5.08;78.48
50103;BME280;35993;52.604;10.078;2024-03-06T01:18:05;101573.56;;;5.07;78.25
50103;BME280;35993;52.604;10.078;2024-03-06T01:20:30;101575.09;;;5.10;78.04
50103;BME280;35993;52.604;10.078;2024-03-06T01:22:56;101571.66;;;5.00;77.85
50103;BME280;35993;52.604;10.078;2024-03-06T01:25:21;101570.66;;;5.01;78.51
50103;BME280;35993;52.604;10.078;2024-03-06T01:27:50;101574.06;;;5.03;78.65
50103;BME280;35993;52.604;10.078;2024-03-06T01:30:15;101571.72;;;5.08;78.71
50103;BME280;35993;52.604;10.078;2024-03-06T01:32:41;101560.53;;;4.95;78.70
50103;BME280;35993;52.604;10.078;2024-03-06T01:35:07;101571.53;;;5.01;78.46
50103;BME280;35993;52.604;10.078;2024-03-06T01:37:32;101578.44;;;5.04;78.41
50103;BME280;35993;52.604;10.078;2024-03-06T01:39:58;101575.22;;;5.00;78.70
50103;BME280;35993;52.604;10.078;2024-03-06T01:42:25;101578.53;;;4.94;78.48
50103;BME280;35993;52.604;10.078;2024-03-06T01:44:51;101580.91;;;4.97;79.04
50103;BME280;35993;52.604;10.078;2024-03-06T01:47:16;101579.06;;;4.98;78.84
50103;BME280;35993;52.604;10.078;2024-03-06T01:49:42;101580.00;;;4.88;78.74
50103;BME280;35993;52.604;10.078;2024-03-06T01:52:11;101576.69;;;4.95;78.79
50103;BME280;35993;52.604;10.078;2024-03-06T01:54:39;101573.16;;;4.94;79.26
50103;BME280;35993;52.604;10.078;2024-03-06T01:57:06;101580.59;;;5.00;79.01
50103;BME280;35993;52.604;10.078;2024-03-06T01:59:33;101583.44;;;4.99;79.02
50103;BME280;35993;52.604;10.078;2024-03-06T02:02:00;101575.63;;;4.87;78.64
50103;BME280;35993;52.604;10.078;2024-03-06T02:04:27;101574.47;;;4.90;78.77
50103;BME280;35993;52.604;10.078;2024-03-06T02:06:53;101585.97;;;5.00;78.63
50103;BME280;35993;52.604;10.078;2024-03-06T02:09:19;101581.75;;;4.98;78.97
50103;BME280;35993;52.604;10.078;2024-03-06T02:11:45;101582.78;;;5.05;78.37
50103;BME280;35993;52.604;10.078;2024-03-06T02:14:10;101588.03;;;5.06;78.53
50103;BME280;35993;52.604;10.078;2024-03-06T02:16:37;101582.97;;;5.03;78.70
50103;BME280;35993;52.604;10.078;2024-03-06T02:19:05;101582.91;;;4.95;78.58
50103;BME280;35993;52.604;10.078;2024-03-06T02:21:31;101576.38;;;4.98;78.75
50103;BME280;35993;52.604;10.078;2024-03-06T02:23:57;101574.34;;;5.00;79.26
50103;BME280;35993;52.604;10.078;2024-03-06T02:26:22;101579.19;;;4.96;78.60
50103;BME280;35993;52.604;10.078;2024-03-06T02:28:49;101575.38;;;4.99;78.76
50103;BME280;35993;52.604;10.078;2024-03-06T02:31:16;101576.91;;;5.01;78.73
50103;BME280;35993;52.604;10.078;2024-03-06T02:33:43;101578.09;;;5.07;78.78
50103;BME280;35993;52.604;10.078;2024-03-06T02:36:32;101579.59;;;5.01;78.73
50103;BME280;35993;52.604;10.078;2024-03-06T02:38:58;101587.69;;;5.01;78.65
50103;BME280;35993;52.604;10.078;2024-03-06T02:41:23;101592.19;;;5.01;79.13
50103;BME280;35993;52.604;10.078;2024-03-06T02:43:49;101585.97;;;5.00;78.96
50103;BME280;35993;52.604;10.078;2024-03-06T02:46:14;101588.44;;;4.93;79.54
50103;BME280;35993;52.604;10.078;2024-03-06T02:48:40;101590.13;;;4.95;79.36
50103;BME280;35993;52.604;10.078;2024-03-06T02:51:05;101600.25;;;5.01;79.63
50103;BME280;35993;52.604;10.078;2024-03-06T02:53:31;101602.66;;;5.04;79.52
50103;BME280;35993;52.604;10.078;2024-03-06T02:55:56;101607.88;;;5.05;79.98
50103;BME280;35993;52.604;10.078;2024-03-06T02:58:22;101601.13;;;5.01;79.82
50103;BME280;35993;52.604;10.078;2024-03-06T03:00:47;101597.78;;;5.07;79.80
50103;BME280;35993;52.604;10.078;2024-03-06T03:03:13;101592.00;;;4.94;79.48
50103;BME280;35993;52.604;10.078;2024-03-06T03:05:39;101601.44;;;4.98;79.68
50103;BME280;35993;52.604;10.078;2024-03-06T03:08:09;101603.75;;;4.93;79.91
50103;BME280;35993;52.604;10.078;2024-03-06T03:10:35;101610.13;;;4.92;80.02
50103;BME280;35993;52.604;10.078;2024-03-06T03:13:01;101611.28;;;4.89;80.27
50103;BME280;35993;52.604;10.078;2024-03-06T03:15:27;101611.44;;;4.88;80.37
50103;BME280;35993;52.604;10.078;2024-03-06T03:17:52;101602.06;;;4.92;80.53
50103;BME280;35993;52.604;10.078;2024-03-06T03:20:18;101609.13;;;4.93;80.17
50103;BME280;35993;52.604;10.078;2024-03-06T03:22:43;101615.22;;;4.95;80.43
50103;BME280;35993;52.604;10.078;2024-03-06T03:25:10;101616.88;;;4.96;80.65
50103;BME280;35993;52.604;10.078;2024-03-06T03:27:37;101618.44;;;4.99;80.28
50103;BME280;35993;52.604;10.078;2024-03-06T03:30:04;101618.72;;;4.96;80.38
50103;BME280;35993;52.604;10.078;2024-03-06T03:32:30;101619.06;;;4.92;81.16
50103;BME280;35993;52.604;10.078;2024-03-06T03:34:55;101623.94;;;4.97;80.91
50103;BME280;35993;52.604;10.078;2024-03-06T03:37:21;101623.66;;;5.00;80.67
50103;BME280;35993;52.604;10.078;2024-03-06T03:39:47;101623.94;;;4.97;80.69
50103;BME280;35993;52.604;10.078;2024-03-06T03:42:12;101626.81;;;4.96;80.78
50103;BME280;35993;52.604;10.078;2024-03-06T03:44:38;101630.50;;;4.95;80.88
50103;BME280;35993;52.604;10.078;2024-03-06T03:47:05;101626.09;;;4.93;80.58
50103;BME280;35993;52.604;10.078;2024-03-06T03:49:32;101632.34;;;4.94;80.99
50103;BME280;35993;52.604;10.078;2024-03-06T03:51:59;101638.03;;;4.91;81.03
50103;BME280;35993;52.604;10.078;2024-03-06T03:54:24;101627.28;;;4.91;81.32
50103;BME280;35993;52.604;10.078;2024-03-06T03:56:50;101635.88;;;4.95;81.42
50103;BME280;35993;52.604;10.078;2024-03-06T03:59:15;101637.72;;;4.94;81.13
50103;BME280;35993;52.604;10.078;2024-03-06T04:01:41;101633.50;;;4.91;81.29
50103;BME280;35993;52.604;10.078;2024-03-06T04:04:06;101640.72;;;4.91;81.32
50103;BME280;35993;52.604;10.078;2024-03-06T04:06:33;101635.22;;;4.92;81.34
50103;BME280;35993;52.604;10.078;2024-03-06T04:08:59;101633.69;;;4.90;81.45
50103;BME280;35993;52.604;10.078;2024-03-06T04:11:25;101633.59;;;4.82;81.20
50103;BME280;35993;52.604;10.078;2024-03-06T04:13:51;101643.19;;;4.84;81.53
50103;BME280;35993;52.604;10.078;2024-03-06T04:16:18;101636.00;;;4.85;81.67
50103;BME280;35993;52.604;10.078;2024-03-06T04:18:47;101646.75;;;4.85;81.47
50103;BME280;35993;52.604;10.078;2024-03-06T04:21:12;101646.81;;;4.93;81.44
50103;BME280;35993;52.604;10.078;2024-03-06T04:23:40;101646.63;;;4.95;81.24
50103;BME280;35993;52.604;10.078;2024-03-06T04:26:05;101648.41;;;4.86;80.94
50103;BME280;35993;52.604;10.078;2024-03-06T04:28:31;101645.59;;;4.87;81.22
50103;BME280;35993;52.604;10.078;2024-03-06T04:30:57;101662.72;;;4.86;81.36
50103;BME280;35993;52.604;10.078;2024-03-06T04:33:23;101647.25;;;4.88;81.75
50103;BME280;35993;52.604;10.078;2024-03-06T04:35:49;101663.94;;;4.92;81.60
50103;BME280;35993;52.604;10.078;2024-03-06T04:38:15;101658.69;;;4.82;81.19
50103;BME280;35993;52.604;10.078;2024-03-06T04:40:40;101666.88;;;4.81;81.30
50103;BME280;35993;52.604;10.078;2024-03-06T04:43:06;101662.19;;;4.83;82.17
50103;BME280;35993;52.604;10.078;2024-03-06T04:45:34;101671.63;;;4.87;82.27
50103;BME280;35993;52.604;10.078;2024-03-06T04:48:00;101675.09;;;4.79;82.15
50103;BME280;35993;52.604;10.078;2024-03-06T04:50:28;101674.13;;;4.80;82.11
50103;BME280;35993;52.604;10.078;2024-03-06T04:52:54;101677.50;;;4.82;82.45
50103;BME280;35993;52.604;10.078;2024-03-06T04:55:21;101678.13;;;4.76;81.66
50103;BME280;35993;52.604;10.078;2024-03-06T04:57:48;101683.78;;;4.73;82.22
50103;BME280;35993;52.604;10.078;2024-03-06T05:00:15;101692.25;;;4.78;81.97
50103;BME280;35993;52.604;10.078;2024-03-06T05:02:41;101697.13;;;4.74;82.28
50103;BME280;35993;52.604;10.078;2024-03-06T05:05:07;101697.56;;;4.70;81.89
50103;BME280;35993;52.604;10.078;2024-03-06T05:07:36;101695.41;;;4.73;82.29
50103;BME280;35993;52.604;10.078;2024-03-06T05:10:02;101691.72;;;4.74;82.48
50103;BME280;35993;52.604;10.078;2024-03-06T05:12:29;101691.72;;;4.74;82.40
50103;BME280;35993;52.604;10.078;2024-03-06T05:14:55;101694.44;;;4.74;82.16
50103;BME280;35993;52.604;10.078;2024-03-06T05:17:21;101691.09;;;4.81;82.02
50103;BME280;35993;52.604;10.078;2024-03-06T05:19:48;101700.47;;;4.76;81.81
50103;BME280;35993;52.604;10.078;2024-03-06T05:22:15;101697.13;;;4.74;82.02
50103;BME280;35993;52.604;10.078;2024-03-06T05:24:46;101713.31;;;4.83;82.07
50103;BME280;35993;52.604;10.078;2024-03-06T05:27:12;101712.31;;;4.84;81.95
50103;BME280;35993;52.604;10.078;2024-03-06T05:29:42;101713.84;;;4.86;81.36
50103;BME280;35993;52.604;10.078;2024-03-06T05:32:08;101721.22;;;4.84;81.33
50103;BME280;35993;52.604;10.078;2024-03-06T05:34:34;101721.44;;;4.73;81.28
50103;BME280;35993;52.604;10.078;2024-03-06T05:37:00;101722.84;;;4.77;81.77
50103;BME280;35993;52.604;10.078;2024-03-06T05:39:27;101724.31;;;4.71;81.91
50103;BME280;35993;52.604;10.078;2024-03-06T05:41:55;101726.00;;;4.72;82.07
50103;BME280;35993;52.604;10.078;2024-03-06T05:44:20;101726.84;;;4.73;81.97
50103;BME280;35993;52.604;10.078;2024-03-06T05:46:46;101730.38;;;4.73;81.95
50103;BME280;35993;52.604;10.078;2024-03-06T05:49:13;101732.91;;;4.75;81.88
50103;BME280;35993;52.604;10.078;2024-03-06T05:51:39;101734.06;;;4.72;81.83
50103;BME280;35993;52.604;10.078;2024-03-06T05:54:04;101737.06;;;4.69;82.36
50103;BME280;35993;52.604;10.078;2024-03-06T05:56:36;101740.81;;;4.76;82.04
50103;BME280;35993;52.604;10.078;2024-03-06T05:59:04;101743.50;;;4.76;82.19
50103;BME280;35993;52.604;10.078;2024-03-06T06:01:33;101756.41;;;4.73;82.35
50103;BME280;35993;52.604;10.078;2024-03-06T06:03:59;101750.81;;;4.66;82.31
50103;BME280;35993;52.604;10.078;2024-03-06T06:06:26;101752.78;;;4.64;82.24
50103;BME280;35993;52.604;10.078;2024-03-06T06:08:51;101752.28;;;4.61;82.21
50103;BME280;35993;52.604;10.078;2024-03-06T06:11:17;101756.63;;;4.62;82.42
50103;BME280;35993;52.604;10.078;2024-03-06T06:13:43;101749.28;;;4.64;82.44
50103;BME280;35993;52.604;10.078;2024-03-06T06:16:08;101760.97;;;4.72;82.60
50103;BME280;35993;52.604;10.078;2024-03-06T06:18:34;101758.97;;;4.74;82.57
50103;BME280;35993;52.604;10.078;2024-03-06T06:21:00;101756.91;;;4.68;82.54
50103;BME280;35993;52.604;10.078;2024-03-06T06:23:26;101761.56;;;4.66;82.51
50103;BME280;35993;52.604;10.078;2024-03-06T06:25:51;101766.50;;;4.71;82.67
50103;BME280;35993;52.604;10.078;2024-03-06T06:28:17;101769.88;;;4.73;83.17
50103;BME280;35993;52.604;10.078;2024-03-06T06:30:43;101770.63;;;4.65;82.89
50103;BME280;35993;52.604;10.078;2024-03-06T06:33:08;101776.00;;;4.65;82.87
50103;BME280;35993;52.604;10.078;2024-03-06T06:35:35;101778.25;;;4.70;82.45
50103;BME280;35993;52.604;10.078;2024-03-06T06:38:01;101778.56;;;4.67;82.90
50103;BME280;35993;52.604;10.078;2024-03-06T06:40:28;101783.97;;;4.67;82.63
50103;BME280;35993;52.604;10.078;2024-03-06T06:42:54;101791.72;;;4.70;82.66
50103;BME280;35993;52.604;10.078;2024-03-06T06:45:20;101797.31;;;4.76;82.93
50103;BME280;35993;52.604;10.078;2024-03-06T06:47:47;101796.31;;;4.78;83.29
50103;BME280;35993;52.604;10.078;2024-03-06T06:50:13;101796.38;;;4.68;83.04
50103;BME280;35993;52.604;10.078;2024-03-06T06:52:38;101811.25;;;4.72;83.36
50103;BME280;35993;52.604;10.078;2024-03-06T06:55:05;101811.75;;;4.75;83.68
50103;BME280;35993;52.604;10.078;2024-03-06T06:57:32;101813.31;;;4.78;83.14
50103;BME280;35993;52.604;10.078;2024-03-06T07:00:19;101821.84;;;4.73;83.85
50103;BME280;35993;52.604;10.078;2024-03-06T07:02:47;101822.00;;;4.72;83.96
50103;BME280;35993;52.604;10.078;2024-03-06T07:05:12;101821.66;;;4.57;83.82
50103;BME280;35993;52.604;10.078;2024-03-06T07:07:38;101835.91;;;4.67;84.28
50103;BME280;35993;52.604;10.078;2024-03-06T07:10:04;101830.34;;;4.69;84.07
50103;BME280;35993;52.604;10.078;2024-03-06T07:12:36;101834.97;;;4.76;83.99
50103;BME280;35993;52.604;10.078;2024-03-06T07:15:02;101831.91;;;4.71;83.78
50103;BME280;35993;52.604;10.078;2024-03-06T07:17:28;101830.47;;;4.77;83.74
50103;BME280;35993;52.604;10.078;2024-03-06T07:19:54;101839.69;;;4.74;84.03
50103;BME280;35993;52.604;10.078;2024-03-06T07:22:19;101838.22;;;4.80;84.36
50103;BME280;35993;52.604;10.078;2024-03-06T07:24:45;101843.56;;;4.90;84.36
50103;BME280;35993;52.604;10.078;2024-03-06T07:27:10;101846.91;;;4.92;84.70
50103;BME280;35993;52.604;10.078;2024-03-06T07:29:37;101852.84;;;4.96;84.00
50103;BME280;35993;52.604;10.078;2024-03-06T07:32:03;101855.00;;;4.92;84.27
50103;BME280;35993;52.604;10.078;2024-03-06T07:34:30;101857.47;;;5.03;85.03
50103;BME280;35993;52.604;10.078;2024-03-06T07:36:57;101861.09;;;5.12;84.40
50103;BME280;35993;52.604;10.078;2024-03-06T07:39:26;101868.25;;;5.21;84.73
50103;BME280;35993;52.604;10.078;2024-03-06T07:41:51;101867.88;;;5.16;83.79
50103;BME280;35993;52.604;10.078;2024-03-06T07:44:17;101873.25;;;5.16;84.31
50103;BME280;35993;52.604;10.078;2024-03-06T07:46:42;101875.78;;;5.18;84.13
50103;BME280;35993;52.604;10.078;2024-03-06T07:49:08;101871.81;;;5.22;83.85
50103;BME280;35993;52.604;10.078;2024-03-06T07:51:34;101885.94;;;5.24;83.59
50103;BME280;35993;52.604;10.078;2024-03-06T07:54:00;101874.63;;;5.20;83.63
50103;BME280;35993;52.604;10.078;2024-03-06T07:56:26;101878.84;;;5.23;83.91
50103;BME280;35993;52.604;10.078;2024-03-06T07:58:52;101885.66;;;5.27;83.74
50103;BME280;35993;52.604;10.078;2024-03-06T08:01:19;101887.75;;;5.33;84.20
50103;BME280;35993;52.604;10.078;2024-03-06T08:03:47;101885.09;;;5.23;83.28
50103;BME280;35993;52.604;10.078;2024-03-06T08:06:13;101894.34;;;5.21;83.62
50103;BME280;35993;52.604;10.078;2024-03-06T08:08:44;101895.13;;;5.31;84.05
50103;BME280;35993;52.604;10.078;2024-03-06T08:11:10;101900.50;;;5.31;83.69
50103;BME280;35993;52.604;10.078;2024-03-06T08:13:37;101896.81;;;5.32;83.96
50103;BME280;35993;52.604;10.078;2024-03-06T08:16:03;101897.03;;;5.39;83.67
50103;BME280;35993;52.604;10.078;2024-03-06T08:18:29;101906.59;;;5.51;84.07
50103;BME280;35993;52.604;10.078;2024-03-06T08:20:56;101910.72;;;5.46;83.66
50103;BME280;35993;52.604;10.078;2024-03-06T08:23:21;101918.66;;;5.47;83.35
50103;BME280;35993;52.604;10.078;2024-03-06T08:25:49;101910.88;;;5.44;83.46
50103;BME280;35993;52.604;10.078;2024-03-06T08:28:14;101921.66;;;5.44;83.35
50103;BME280;35993;52.604;10.078;2024-03-06T08:30:41;101925.66;;;5.58;83.92
50103;BME280;35993;52.604;10.078;2024-03-06T08:33:06;101924.19;;;5.64;83.17
50103;BME280;35993;52.604;10.078;2024-03-06T08:35:32;101920.97;;;5.78;83.14
50103;BME280;35993;52.604;10.078;2024-03-06T08:37:57;101926.09;;;5.89;83.09
50103;BME280;35993;52.604;10.078;2024-03-06T08:40:23;101925.56;;;5.86;82.62
50103;BME280;35993;52.604;10.078;2024-03-06T08:42:51;101925.88;;;5.83;82.35
50103;BME280;35993;52.604;10.078;2024-03-06T08:45:17;101926.03;;;5.81;82.23
50103;BME280;35993;52.604;10.078;2024-03-06T08:47:44;101931.59;;;5.80;82.27
50103;BME280;35993;52.604;10.078;2024-03-06T08:50:10;101939.28;;;5.74;82.02
50103;BME280;35993;52.604;10.078;2024-03-06T08:52:37;101935.97;;;5.81;82.44
50103;BME280;35993;52.604;10.078;2024-03-06T08:55:03;101933.97;;;5.83;82.03
50103;BME280;35993;52.604;10.078;2024-03-06T08:57:29;101936.50;;;5.84;82.31
50103;BME280;35993;52.604;10.078;2024-03-06T08:59:57;101940.09;;;5.93;82.48
50103;BME280;35993;52.604;10.078;2024-03-06T09:02:22;101949.88;;;5.94;82.27
50103;BME280;35993;52.604;10.078;2024-03-06T09:04:49;101948.34;;;5.91;81.92
50103;BME280;35993;52.604;10.078;2024-03-06T09:07:17;101953.00;;;5.99;81.57
50103;BME280;35993;52.604;10.078;2024-03-06T09:09:43;101954.44;;;6.12;82.04
50103;BME280;35993;52.604;10.078;2024-03-06T09:12:10;101952.03;;;6.27;81.61
50103;BME280;35993;52.604;10.078;2024-03-06T09:14:37;101955.97;;;6.14;81.10
50103;BME280;35993;52.604;10.078;2024-03-06T09:17:03;101956.75;;;6.06;80.68
50103;BME280;35993;52.604;10.078;2024-03-06T09:19:30;101958.72;;;6.22;80.74
50103;BME280;35993;52.604;10.078;2024-03-06T09:21:56;101961.16;;;6.34;80.81
50103;BME280;35993;52.604;10.078;2024-03-06T09:24:23;101964.56;;;6.36;80.43
50103;BME280;35993;52.604;10.078;2024-03-06T09:26:52;101960.75;;;6.47;80.07
50103;BME280;35993;52.604;10.078;2024-03-06T09:29:18;101959.09;;;6.54;79.53
50103;BME280;35993;52.604;10.078;2024-03-06T09:31:44;101961.00;;;6.62;79.54
50103;BME280;35993;52.604;10.078;2024-03-06T09:34:11;101957.59;;;6.60;79.11
50103;BME280;35993;52.604;10.078;2024-03-06T09:36:41;101963.38;;;6.65;78.78
50103;BME280;35993;52.604;10.078;2024-03-06T09:39:11;101973.59;;;6.79;78.91
50103;BME280;35993;52.604;10.078;2024-03-06T09:41:37;101967.59;;;7.02;78.48
50103;BME280;35993;52.604;10.078;2024-03-06T09:44:04;101965.28;;;7.15;78.41
50103;BME280;35993;52.604;10.078;2024-03-06T09:46:30;101967.09;;;6.98;77.34
50103;BME280;35993;52.604;10.078;2024-03-06T09:48:56;101971.47;;;6.99;77.36
50103;BME280;35993;52.604;10.078;2024-03-06T09:51:22;101972.00;;;7.03;77.24
50103;BME280;35993;52.604;10.078;2024-03-06T09:53:48;101975.91;;;7.09;77.17
50103;BME280;35993;52.604;10.078;2024-03-06T09:56:17;101976.38;;;6.96;77.09
50103;BME280;35993;52.604;10.078;2024-03-06T09:58:42;101979.44;;;7.01;77.10
50103;BME280;35993;52.604;10.078;2024-03-06T10:01:08;101981.34;;;7.17;76.74
50103;BME280;35993;52.604;10.078;2024-03-06T10:03:34;101977.50;;;7.28;76.49
50103;BME280;35993;52.604;10.078;2024-03-06T10:06:00;101979.03;;;7.38;75.76
50103;BME280;35993;52.604;10.078;2024-03-06T10:08:25;101981.09;;;7.53;75.73
50103;BME280;35993;52.604;10.078;2024-03-06T10:10:52;101979.44;;;7.52;75.32
50103;BME280;35993;52.604;10.078;2024-03-06T10:13:17;101970.63;;;7.58;74.66
50103;BME280;35993;52.604;10.078;2024-03-06T10:16:03;101985.66;;;7.61;75.29
50103;BME280;35993;52.604;10.078;2024-03-06T10:18:30;101981.78;;;7.63;74.54
50103;BME280;35993;52.604;10.078;2024-03-06T10:20:57;101987.41;;;7.86;74.89
50103;BME280;35993;52.604;10.078;2024-03-06T10:23:23;101985.06;;;7.92;74.37
50103;BME280;35993;52.604;10.078;2024-03-06T10:25:50;101988.25;;;8.12;74.26
50103;BME280;35993;52.604;10.078;2024-03-06T10:28:17;101988.25;;;8.20;73.29
50103;BME280;35993;52.604;10.078;2024-03-06T10:30:44;101986.22;;;8.06;72.96
50103;BME280;35993;52.604;10.078;2024-03-06T10:33:12;101985.03;;;8.00;72.75
50103;BME280;35993;52.604;10.078;2024-03-06T10:35:41;101981.81;;;7.96;71.52
50103;BME280;35993;52.604;10.078;2024-03-06T10:38:07;101987.06;;;8.14;72.01
50103;BME280;35993;52.604;10.078;2024-03-06T10:40:35;101992.31;;;8.49;71.69
50103;BME280;35993;52.604;10.078;2024-03-06T10:43:03;101984.16;;;8.65;70.28
50103;BME280;35993;52.604;10.078;2024-03-06T10:45:57;101991.47;;;8.48;70.57
50103;BME280;35993;52.604;10.078;2024-03-06T10:48:28;101992.31;;;8.49;70.63
50103;BME280;35993;52.604;10.078;2024-03-06T10:50:55;101976.38;;;8.54;69.36
50103;BME280;35993;52.604;10.078;2024-03-06T10:53:23;101962.66;;;8.64;68.58
50103;BME280;35993;52.604;10.078;2024-03-06T10:55:51;101978.72;;;8.65;68.54
50103;BME280;35993;52.604;10.078;2024-03-06T10:58:18;101978.19;;;8.78;68.77
50103;BME280;35993;52.604;10.078;2024-03-06T11:00:46;101965.53;;;8.71;66.58
50103;BME280;35993;52.604;10.078;2024-03-06T11:03:13;101979.94;;;8.63;67.37
50103;BME280;35993;52.604;10.078;2024-03-06T11:05:39;101962.88;;;8.46;66.22
50103;BME280;35993;52.604;10.078;2024-03-06T11:08:12;101964.59;;;8.47;66.23
50103;BME280;35993;52.604;10.078;2024-03-06T11:10:40;101979.09;;;8.62;67.17
50103;BME280;35993;52.604;10.078;2024-03-06T11:13:21;101980.94;;;8.70;67.58
50103;BME280;35993;52.604;10.078;2024-03-06T11:15:48;101981.63;;;8.72;67.59
50103;BME280;35993;52.604;10.078;2024-03-06T11:23:29;101982.03;;;8.92;67.46
50103;BME280;35993;52.604;10.078;2024-03-06T11:25:55;101978.84;;;8.89;67.12
50103;BME280;35993;52.604;10.078;2024-03-06T11:28:23;101983.22;;;8.90;66.58
50103;BME280;35993;52.604;10.078;2024-03-06T11:31:06;101987.94;;;9.04;66.57
50103;BME280;35993;52.604;10.078;2024-03-06T11:33:41;101990.75;;;9.19;66.64
50103;BME280;35993;52.604;10.078;2024-03-06T11:38:56;101985.22;;;9.04;66.25
50103;BME280;35993;52.604;10.078;2024-03-06T11:41:24;101980.16;;;9.01;66.19
50103;BME280;35993;52.604;10.078;2024-03-06T11:43:51;101983.03;;;8.99;66.06
50103;BME280;35993;52.604;10.078;2024-03-06T11:46:40;101982.22;;;8.91;66.18
50103;BME280;35993;52.604;10.078;2024-03-06T11:49:35;101988.66;;;8.90;66.56
50103;BME280;35993;52.604;10.078;2024-03-06T11:52:07;101987.44;;;9.00;65.89
50103;BME280;35993;52.604;10.078;2024-03-06T11:54:34;101984.56;;;9.02;65.43
50103;BME280;35993;52.604;10.078;2024-03-06T11:57:02;101980.91;;;9.18;65.51
50103;BME280;35993;52.604;10.078;2024-03-06T11:59:32;101984.97;;;9.22;65.88
50103;BME280;35993;52.604;10.078;2024-03-06T12:02:00;101974.91;;;9.31;64.95
50103;BME280;35993;52.604;10.078;2024-03-06T12:04:32;101978.50;;;9.23;64.89
50103;BME280;35993;52.604;10.078;2024-03-06T12:07:08;101978.38;;;9.16;65.06
50103;BME280;35993;52.604;10.078;2024-03-06T12:09:36;101980.53;;;9.29;64.77
50103;BME280;35993;52.604;10.078;2024-03-06T12:12:02;101971.81;;;9.42;63.44
50103;BME280;35993;52.604;10.078;2024-03-06T12:14:29;101984.13;;;9.53;64.53
50103;BME280;35993;52.604;10.078;2024-03-06T12:16:58;101972.72;;;9.58;63.73
50103;BME280;35993;52.604;10.078;2024-03-06T12:19:32;101991.00;;;9.64;65.07
50103;BME280;35993;52.604;10.078;2024-03-06T12:22:01;101994.06;;;9.61;64.96
50103;BME280;35993;52.604;10.078;2024-03-06T12:24:27;101990.78;;;9.74;63.84
50103;BME280;35993;52.604;10.078;2024-03-06T12:27:22;101983.22;;;9.61;64.04
50103;BME280;35993;52.604;10.078;2024-03-06T12:29:52;101991.28;;;9.46;64.42
50103;BME280;35993;52.604;10.078;2024-03-06T12:32:19;101986.72;;;9.46;63.66
50103;BME280;35993;52.604;10.078;2024-03-06T12:34:44;101984.75;;;9.63;63.89
50103;BME280;35993;52.604;10.078;2024-03-06T12:37:10;101989.00;;;9.58;63.23
50103;BME280;35993;52.604;10.078;2024-03-06T12:39:36;101977.81;;;9.61;62.88
50103;BME280;35993;52.604;10.078;2024-03-06T12:42:03;101987.38;;;9.72;63.74
50103;BME280;35993;52.604;10.078;2024-03-06T12:44:28;101974.22;;;9.60;62.52
50103;BME280;35993;52.604;10.078;2024-03-06T12:46:54;101985.72;;;9.71;63.82
50103;BME280;35993;52.604;10.078;2024-03-06T12:49:19;101972.81;;;9.73;61.87
50103;BME280;35993;52.604;10.078;2024-03-06T12:51:45;102085.88;;;9.64;80.78
50103;BME280;35993;52.604;10.078;2024-03-06T12:54:10;102074.06;;;9.17;85.73
50103;BME280;35993;52.604;10.078;2024-03-06T12:56:36;102016.13;;;9.26;74.96
50103;BME280;35993;52.604;10.078;2024-03-06T12:59:01;101997.25;;;9.41;70.98